Terminal Aerodrome Forecast
Issued by NWS

Home | Current Version | Previous Version | Text Only | Print | Product List | Glossary On
Versions: 1 2 3 4 5 6 7 8 9 10 11 12 13 14 15 16 17 18 19 20 21 22
000
FTPA31 PHFO 262300
TAFJHM
TAF
PHJH 262328Z 2700/2724 13005KT P6SM FEW025 SCT045 SCT100
     FM270500 VRB05KT P6SM SCT020 SCT045 SCT100
     FM272000 35008KT P6SM SCT020 SCT045 BKN100
      AMD NOT SKED AFT 270400=

USA.gov is the U.S. government's official web portal to all federal, state and local government web resources and services.